Time;durP1;ratioP1;P1;durP2;ratioP2;P2;SDS_P1;SDS_P2;PMS_P1;PMS_P2;Temp;Humidity;BMP_temperature;BMP_pressure;BME280_temperature;BME280_humidity;BME280_pressure;Samples;Min_cycle;Max_cycle;Signal;HPM_P1;HPM_P2
2021/01/26 04:34:50;;;;;;;8.30;4.30;;;1.60;96.10;;;;;;5289631;23;20033;-76
2021/01/26 07:19:01;;;;;;;9.85;3.78;;;2.60;94.30;;;;;;5157048;23;20077;-80
2021/01/26 07:22:15;;;;;;;6.25;3.95;;;2.60;94.20;;;;;;4912344;29;20022;-80
2021/01/26 07:28:00;;;;;;;5.85;3.45;;;2.60;94.40;;;;;;5303098;23;20041;-81
2021/01/26 07:30:36;;;;;;;5.72;3.30;;;2.50;94.50;;;;;;4902833;29;20044;-82
2021/01/26 07:33:20;;;;;;;8.95;3.47;;;1.50;94.20;;;;;;4918158;29;20057;-82
2021/01/26 07:38:39;;;;;;;7.13;3.40;;;2.60;94.50;;;;;;4887114;29;20033;-83
2021/01/26 07:49:02;;;;;;;6.13;3.45;;;2.70;94.50;;;;;;4946027;23;20049;-79
2021/01/26 07:51:33;;;;;;;6.85;3.22;;;2.80;94.30;;;;;;4915286;29;20024;-79
2021/01/26 07:54:25;;;;;;;5.22;3.53;;;2.90;94.30;;;;;;4917718;29;20044;-80
2021/01/26 07:56:51;;;;;;;7.90;4.32;;;3.00;94.30;;;;;;4918169;29;20148;-80
2021/01/26 07:59:26;;;;;;;7.90;3.83;;;3.10;94.20;;;;;;4921059;29;20513;-79
2021/01/26 08:07:30;;;;;;;7.43;4.28;;;3.10;94.30;;;;;;5797242;23;20160;-82
2021/01/26 08:10:00;;;;;;;9.10;4.05;;;3.00;94.50;;;;;;4938014;29;20020;-81
2021/01/26 08:12:29;;;;;;;7.78;4.07;;;3.10;94.50;;;;;;5238456;23;20038;-82
2021/01/26 08:15:09;;;;;;;7.07;4.30;;;2.50;94.60;;;;;;4901443;29;20049;-83
2021/01/26 08:17:37;;;;;;;46.42;25.67;;;3.20;94.40;;;;;;4962677;23;20097;-82
2021/01/26 08:20:13;;;;;;;8.95;5.75;;;2.60;94.30;;;;;;4886191;29;20040;-82
2021/01/26 08:33:22;;;;;;;10.90;4.40;;;3.30;94.80;;;;;;5107520;23;20044;-83
2021/01/26 08:35:48;;;;;;;6.07;3.40;;;3.30;94.90;;;;;;4924112;29;20027;-82
2021/01/26 08:41:38;;;;;;;7.97;3.20;;;3.30;95.00;;;;;;5239507;23;20039;-84
2021/01/26 08:44:07;;;;;;;4.80;3.10;;;3.20;95.30;;;;;;4941629;23;20081;-81
2021/01/26 08:47:39;;;;;;;6.53;2.95;;;3.60;95.00;;;;;;4917313;29;20042;-84
2021/01/26 08:50:12;;;;;;;6.82;2.33;;;3.60;94.70;;;;;;4928692;29;20013;-81
2021/01/26 08:52:38;;;;;;;6.68;2.35;;;3.90;93.70;;;;;;5026135;23;20052;-82
2021/01/26 08:55:05;;;;;;;10.38;4.25;;;4.40;93.50;;;;;;5058828;23;20030;-79
2021/01/26 08:57:31;;;;;;;6.57;3.05;;;4.30;92.90;;;;;;4905256;29;20025;-84
2021/01/26 08:59:59;;;;;;;5.47;2.25;;;4.30;93.00;;;;;;4905747;29;20024;-83
2021/01/26 09:02:41;;;;;;;5.85;2.53;;;4.50;92.50;;;;;;5022767;23;20043;-83
2021/01/26 09:05:09;;;;;;;6.47;3.00;;;4.00;92.50;;;;;;4971797;23;20052;-83
2021/01/26 09:07:55;;;;;;;10.10;3.13;;;3.80;92.70;;;;;;4900413;29;20034;-83
2021/01/26 09:13:12;;;;;;;6.15;2.03;;;4.50;92.00;;;;;;4959315;23;20310;-82
2021/01/26 09:15:52;;;;;;;4.78;2.28;;;4.40;91.90;;;;;;4931541;29;20060;-82
2021/01/26 09:18:21;;;;;;;2.65;2.20;;;4.70;92.00;;;;;;4924738;29;20017;-83
2021/01/26 09:20:52;;;;;;;6.40;2.40;;;4.60;91.90;;;;;;5026440;23;20037;-83
2021/01/26 09:23:22;;;;;;;4.15;2.42;;;4.60;92.00;;;;;;4929094;29;20058;-82
2021/01/26 09:25:48;;;;;;;7.35;2.72;;;3.60;92.20;;;;;;4918382;29;20035;-82
2021/01/26 09:28:17;;;;;;;6.55;2.38;;;4.60;92.60;;;;;;5091555;23;20046;-84
2021/01/26 09:30:45;;;;;;;5.05;2.28;;;4.60;91.80;;;;;;4994455;23;20051;-84
2021/01/26 09:33:14;;;;;;;4.07;2.00;;;4.00;91.60;;;;;;4924056;29;20056;-83
2021/01/26 09:38:25;;;;;;;6.40;2.63;;;4.60;91.50;;;;;;5458621;23;20037;-83
2021/01/26 09:43:45;;;;;;;2.20;1.60;;;4.70;91.20;;;;;;5124147;23;20031;-82
2021/01/26 09:46:26;;;;;;;3.80;2.05;;;4.70;91.60;;;;;;4921826;29;20125;-83
2021/01/26 09:49:06;;;;;;;6.63;2.60;;;5.80;91.70;;;;;;4920930;29;20016;-83
2021/01/26 09:51:44;;;;;;;5.40;2.80;;;4.60;91.30;;;;;;4920119;29;20096;-83
2021/01/26 09:54:20;;;;;;;4.40;2.25;;;4.60;91.60;;;;;;4888533;29;20025;-83
2021/01/26 09:56:46;;;;;;;8.25;2.22;;;4.30;92.10;;;;;;4905412;29;20031;-84
2021/01/26 09:59:14;;;;;;;8.73;2.55;;;4.70;91.80;;;;;;5177209;23;20044;-83
2021/01/26 10:01:43;;;;;;;3.90;1.77;;;4.70;91.90;;;;;;4920169;29;20012;-82
2021/01/26 10:04:10;;;;;;;2.97;2.03;;;4.50;91.90;;;;;;4912404;29;20054;-83
2021/01/26 10:06:38;;;;;;;6.55;1.90;;;4.60;92.10;;;;;;4903668;29;20081;-83
2021/01/26 10:09:21;;;;;;;5.32;2.25;;;4.50;92.40;;;;;;4900097;29;20014;-84
2021/01/26 10:11:47;;;;;;;7.35;3.65;;;4.70;92.10;;;;;;4901697;29;20036;-84
2021/01/26 10:14:23;;;;;;;;;;;4.70;92.40;;;;;;4904274;29;20105;-84
2021/01/26 10:17:18;;;;;;;9.98;4.25;;;4.70;92.20;;;;;;4904722;29;19896;-84
2021/01/26 10:19:44;;;;;;;8.20;1.98;;;4.80;92.90;;;;;;4917271;29;20041;-83
2021/01/26 10:22:11;;;;;;;;;;;5.00;92.50;;;;;;4904336;29;20036;-84
2021/01/26 10:24:38;;;;;;;2.95;1.90;;;4.80;92.20;;;;;;4919419;29;19896;-83
2021/01/26 10:27:23;;;;;;;3.33;1.92;;;4.90;92.50;;;;;;5189027;23;20041;-83
2021/01/26 10:30:05;;;;;;;3.92;1.70;;;4.90;92.50;;;;;;4900366;29;20032;-83
2021/01/26 10:32:47;;;;;;;4.25;2.45;;;6.00;92.90;;;;;;4888368;29;20036;-84
2021/01/26 10:35:32;;;;;;;3.75;2.00;;;5.00;92.60;;;;;;4881519;29;20045;-84
2021/01/26 10:43:19;;;;;;;4.88;1.90;;;5.10;92.80;;;;;;4884152;29;20033;-82
2021/01/26 10:58:44;;;;;;;5.28;2.00;;;5.40;93.00;;;;;;4908191;27;20037;-83
2021/01/26 11:01:13;;;;;;;6.43;1.77;;;5.30;93.20;;;;;;4905181;29;20056;-83
2021/01/26 11:03:40;;;;;;;4.90;2.05;;;5.20;93.10;;;;;;4903430;29;20076;-84
2021/01/26 11:06:07;;;;;;;4.90;2.05;;;5.30;93.40;;;;;;4904778;29;20037;-82
2021/01/26 11:11:12;;;;;;;4.32;1.85;;;5.50;93.40;;;;;;4887157;29;20101;-84
2021/01/26 11:13:38;;;;;;;3.45;1.77;;;5.40;93.50;;;;;;4904098;29;20038;-83
2021/01/26 11:16:05;;;;;;;6.53;1.90;;;5.50;93.50;;;;;;4888308;29;20062;-84
2021/01/26 11:18:30;;;;;;;4.72;1.73;;;5.60;93.70;;;;;;4889010;29;20040;-83
2021/01/26 11:20:57;;;;;;;5.05;2.30;;;4.80;93.60;;;;;;4889027;29;20030;-84
2021/01/26 11:23:23;;;;;;;4.95;1.60;;;5.50;93.70;;;;;;4877989;29;20028;-84
2021/01/26 11:25:51;;;;;;;4.72;1.90;;;5.10;93.30;;;;;;4901857;29;20026;-84
2021/01/26 11:30:52;;;;;;;2.10;1.90;;;5.90;93.40;;;;;;5181989;23;20049;-82
2021/01/26 11:33:18;;;;;;;;;;;5.90;93.40;;;;;;4926071;29;20029;-82
2021/01/26 11:35:45;;;;;;;6.47;2.20;;;5.70;93.80;;;;;;4925892;29;19987;-84
2021/01/26 11:38:11;;;;;;;5.65;1.80;;;5.80;94.00;;;;;;4938827;29;20020;-83
2021/01/26 11:40:37;;;;;;;6.47;2.00;;;5.80;94.20;;;;;;4925429;29;20026;-84
2021/01/26 11:43:03;;;;;;;6.88;1.80;;;6.00;94.20;;;;;;4925937;29;20041;-83
2021/01/26 11:48:10;;;;;;;5.20;3.05;;;5.90;94.90;;;;;;5513115;23;20064;-83
2021/01/26 11:55:40;;;;;;;4.07;1.77;;;6.10;94.50;;;;;;4993583;23;20040;-84
2021/01/26 11:58:06;;;;;;;3.67;2.00;;;6.10;95.20;;;;;;4925917;29;20021;-84
2021/01/26 12:03:08;;;;;;;5.43;2.15;;;6.20;95.00;;;;;;5153957;23;19927;-83
2021/01/26 12:05:37;;;;;;;10.07;2.50;;;6.00;95.30;;;;;;4938051;29;20034;-83
2021/01/26 12:10:39;;;;;;;5.10;2.15;;;5.90;95.50;;;;;;5451621;23;20032;-83
2021/01/26 12:13:05;;;;;;;;;;;5.90;96.10;;;;;;4906659;29;20040;-83
2021/01/26 12:18:07;;;;;;;3.72;2.40;;;5.90;96.10;;;;;;4993604;23;20434;-84
2021/01/26 12:20:32;;;;;;;2.90;1.83;;;6.00;96.30;;;;;;5234255;23;20049;-83
2021/01/26 12:23:00;;;;;;;3.45;1.95;;;6.10;96.50;;;;;;4908668;29;20057;-84
2021/01/26 12:25:30;;;;;;;7.03;1.98;;;6.20;95.80;;;;;;4887398;29;20081;-84
2021/01/26 12:27:57;;;;;;;6.50;2.30;;;6.20;95.80;;;;;;4869579;29;20037;-84
2021/01/26 12:30:25;;;;;;;;;;;6.50;96.00;;;;;;5361245;23;20057;-80
2021/01/26 12:32:51;;;;;;;6.10;2.30;;;6.70;95.30;;;;;;5093157;23;19928;-83
2021/01/26 12:35:24;;;;;;;2.30;1.67;;;6.90;95.30;;;;;;5107690;23;20045;-82
2021/01/26 12:37:50;;;;;;;2.20;2.00;;;6.80;94.60;;;;;;4963628;23;20033;-84
2021/01/26 12:40:16;;;;;;;;;;;7.10;94.90;;;;;;4894967;29;20072;-84
2021/01/26 12:42:42;;;;;;;3.45;1.65;;;6.90;94.60;;;;;;4905525;29;19915;-83
2021/01/26 12:45:10;;;;;;;4.85;1.70;;;6.80;94.70;;;;;;5231046;23;20034;-83
2021/01/26 12:47:36;;;;;;;4.25;1.98;;;7.00;94.30;;;;;;5015138;23;20191;-82
2021/01/26 12:50:04;;;;;;;4.30;2.00;;;7.00;94.70;;;;;;5292549;23;20032;-82
2021/01/26 13:33:56;;;;;;;7.57;2.97;;;6.90;95.00;;;;;;4994929;23;20037;-83
2021/01/26 13:36:24;;;;;;;3.33;1.73;;;7.00;94.90;;;;;;5158748;23;20043;-84
2021/01/26 13:44:01;;;;;;;5.32;1.60;;;7.10;94.70;;;;;;5632340;23;20073;-82
2021/01/26 13:46:27;;;;;;;12.60;3.85;;;6.90;94.50;;;;;;5549389;23;20982;-81
2021/01/26 13:48:57;;;;;;;4.88;1.83;;;7.20;94.60;;;;;;5264188;23;20052;-81
2021/01/26 13:56:36;;;;;;;4.35;1.70;;;7.30;94.10;;;;;;5597940;23;20089;-80
2021/01/26 13:59:02;;;;;;;;;;;7.30;94.70;;;;;;5520257;23;20043;-84
2021/01/26 14:04:04;;;;;;;5.68;2.28;;;7.30;94.50;;;;;;5021731;23;20051;-81
2021/01/26 14:06:35;;;;;;;4.20;1.92;;;7.20;94.90;;;;;;4886499;29;20006;-81
2021/01/26 14:09:02;;;;;;;5.30;1.52;;;7.20;94.90;;;;;;4914484;29;20047;-82
2021/01/26 14:11:28;;;;;;;3.05;1.50;;;7.10;95.20;;;;;;4909721;29;20013;-81
2021/01/26 14:13:54;;;;;;;2.65;1.58;;;6.90;95.20;;;;;;4893127;29;20097;-80
2021/01/26 14:16:20;;;;;;;3.97;1.25;;;7.10;95.80;;;;;;5092438;23;20037;-84
2021/01/26 14:21:21;;;;;;;6.63;3.05;;;7.10;95.30;;;;;;5741776;23;20052;-83
2021/01/26 14:23:50;;;;;;;;;;;6.80;95.30;;;;;;4929492;29;20021;-82
2021/01/26 15:05:00;;;;;;;2.72;1.58;;;7.30;95.60;;;;;;4902312;29;20029;-84
2021/01/26 15:12:37;;;;;;;2.10;1.40;;;7.30;95.90;;;;;;5778320;23;20059;-81
2021/01/26 15:40:55;;;;;;;4.50;1.88;;;7.30;96.40;;;;;;5010253;23;20040;-85
2021/01/26 15:43:21;;;;;;;4.43;2.00;;;7.20;96.90;;;;;;5337895;23;20035;-84
2021/01/26 15:45:47;;;;;;;4.72;1.60;;;7.30;96.60;;;;;;5294221;23;20060;-82
2021/01/26 15:53:20;;;;;;;3.92;1.52;;;7.40;96.50;;;;;;5489395;23;20050;-84
2021/01/26 16:13:51;;;;;;;7.25;2.58;;;7.50;96.50;;;;;;5142918;23;20056;-83
2021/01/26 16:16:19;;;;;;;;;;;7.40;96.60;;;;;;4923058;29;20049;-83
2021/01/26 16:18:45;;;;;;;4.13;1.75;;;7.40;96.70;;;;;;5052434;23;19927;-82
2021/01/26 16:21:11;;;;;;;;;;;7.30;96.80;;;;;;4905168;29;20017;-84
2021/01/26 16:23:37;;;;;;;3.35;1.75;;;7.50;97.00;;;;;;4927714;29;19911;-84
2021/01/26 16:28:39;;;;;;;4.38;1.70;;;7.40;96.60;;;;;;5521388;23;20051;-84
2021/01/26 16:36:15;;;;;;;6.18;1.90;;;7.50;96.70;;;;;;5517120;23;20056;-84
2021/01/26 17:54:54;;;;;;;9.63;4.53;;;7.80;98.00;;;;;;5742577;23;20260;-78
2021/01/26 17:57:19;;;;;;;;;;;7.80;98.50;;;;;;4955470;23;20585;-80
2021/01/26 17:59:46;;;;;;;9.00;4.43;;;7.80;98.20;;;;;;5436157;23;19934;-80
2021/01/26 18:02:11;;;;;;;;;;;7.80;98.30;;;;;;4919694;29;20039;-81
2021/01/26 18:04:38;;;;;;;5.20;4.10;;;7.90;98.10;;;;;;4918255;29;19923;-81
2021/01/26 18:07:04;;;;;;;;;;;7.80;97.90;;;;;;5050126;23;20082;-81
2021/01/26 19:32:17;;;;;;;17.02;8.35;;;8.40;98.90;;;;;;5217210;23;20040;-82
2021/01/26 19:34:43;;;;;;;13.40;7.40;;;8.50;98.90;;;;;;4925366;29;20025;-83
2021/01/26 19:37:09;;;;;;;9.30;6.18;;;8.80;99.00;;;;;;4955237;23;20048;-83
2021/01/26 19:39:36;;;;;;;11.40;6.75;;;8.60;99.10;;;;;;5087750;23;20033;-82
